Time;durP1;ratioP1;P1;durP2;ratioP2;P2;SDS_P1;SDS_P2;PMS_P1;PMS_P2;Temp;Humidity;BMP_temperature;BMP_pressure;BME280_temperature;BME280_humidity;BME280_pressure;Samples;Min_cycle;Max_cycle;Signal;HPM_P1;HPM_P2
2023/12/15 00:02:48;;;;;;;;;;;;;;;;;;6339020;28;20321;-86
2023/12/15 00:05:49;;;;;;;;;;;;;;;;;;6333972;28;20004;-85
2023/12/15 00:08:49;;;;;;;;;;;;;;;;;;6340347;28;19924;-85
2023/12/15 00:11:49;;;;;;;;;;;;;;;;;;6332770;28;19916;-85
2023/12/15 00:14:49;;;;;;;;;;;;;;;;;;6317871;28;19919;-86
2023/12/15 00:17:49;;;;;;;;;;;;;;;;;;6337314;28;19919;-84
2023/12/15 00:20:49;;;;;;;;;;;;;;;;;;6337318;28;19916;-85
2023/12/15 00:23:49;;;;;;;;;;;;;;;;;;6334510;28;19970;-86
2023/12/15 00:26:50;;;;;;;;;;;;;;;;;;6319362;28;19920;-84
2023/12/15 00:29:50;;;;;;;;;;;;;;;;;;6340380;28;20015;-86
2023/12/15 00:32:50;;;;;;;;;;;;;;;;;;6331899;28;19916;-86
2023/12/15 00:35:50;;;;;;;;;;;;;;;;;;6334998;28;19927;-85
2023/12/15 00:38:50;;;;;;;;;;;;;;;;;;6337249;28;19919;-87
2023/12/15 00:41:50;;;;;;;;;;;;;;;;;;6333697;28;19915;-84
2023/12/15 00:44:50;;;;;;;;;;;;;;;;;;6338667;28;20388;-84
2023/12/15 00:47:51;;;;;;;;;;;;;;;;;;6338700;28;20406;-85
2023/12/15 00:50:51;;;;;;;;;;;;;;;;;;6334930;28;20347;-84
2023/12/15 00:53:51;;;;;;;;;;;;;;;;;;6337479;28;19965;-84
2023/12/15 00:56:51;;;;;;;;;;;;;;;;;;6340109;28;19911;-84
2023/12/15 00:59:51;;;;;;;;;;;;;;;;;;6321815;28;20010;-85
2023/12/15 01:02:51;;;;;;;;;;;;;;;;;;6334776;28;20003;-89
2023/12/15 01:05:51;;;;;;;;;;;;;;;;;;6335240;28;20002;-85
2023/12/15 01:08:51;;;;;;;;;;;;;;;;;;6336960;28;19926;-83
2023/12/15 01:11:52;;;;;;;;;;;;;;;;;;6336355;28;19916;-84
2023/12/15 01:14:52;;;;;;;;;;;;;;;;;;6338465;28;20007;-88
2023/12/15 01:17:52;;;;;;;;;;;;;;;;;;6319501;28;20025;-83
2023/12/15 01:20:52;;;;;;;;;;;;;;;;;;6336934;28;20252;-83
2023/12/15 01:23:52;;;;;;;;;;;;;;;;;;6333792;28;19938;-84
2023/12/15 01:26:52;;;;;;;;;;;;;;;;;;6337461;28;20295;-87
2023/12/15 01:29:52;;;;;;;;;;;;;;;;;;6319146;28;19932;-83
2023/12/15 01:32:53;;;;;;;;;;;;;;;;;;6333120;28;19911;-84
2023/12/15 01:35:53;;;;;;;;;;;;;;;;;;6334605;28;19956;-83
2023/12/15 01:38:53;;;;;;;;;;;;;;;;;;6337667;28;20272;-83
2023/12/15 01:41:53;;;;;;;;;;;;;;;;;;6335465;28;19913;-83
2023/12/15 01:44:53;;;;;;;;;;;;;;;;;;6338869;28;19973;-83
2023/12/15 01:47:54;;;;;;;;;;;;;;;;;;6335918;28;19915;-83
2023/12/15 01:50:54;;;;;;;;;;;;;;;;;;6334355;28;20355;-86
2023/12/15 01:53:54;;;;;;;;;;;;;;;;;;6337382;28;20270;-83
2023/12/15 01:56:54;;;;;;;;;;;;;;;;;;6338237;28;20333;-82
2023/12/15 01:59:54;;;;;;;;;;;;;;;;;;6321468;28;19920;-83
2023/12/15 02:02:54;;;;;;;;;;;;;;;;;;6336734;28;20383;-83
2023/12/15 02:05:55;;;;;;;;;;;;;;;;;;6337526;28;19923;-83
2023/12/15 02:08:55;;;;;;;;;;;;;;;;;;6345288;28;19922;-83
2023/12/15 02:11:55;;;;;;;;;;;;;;;;;;6344227;28;19912;-84
2023/12/15 02:14:55;;;;;;;;;;;;;;;;;;6339143;28;19912;-82
2023/12/15 02:17:55;;;;;;;;;;;;;;;;;;6337841;28;19912;-83
2023/12/15 02:20:55;;;;;;;;;;;;;;;;;;6346916;28;19919;-83
2023/12/15 02:23:56;;;;;;;;;;;;;;;;;;6343180;28;19912;-82
2023/12/15 02:26:56;;;;;;;;;;;;;;;;;;6345409;28;19923;-83
2023/12/15 02:29:56;;;;;;;;;;;;;;;;;;6344530;28;19916;-83
2023/12/15 02:32:56;;;;;;;;;;;;;;;;;;6342844;28;20002;-82
2023/12/15 02:35:56;;;;;;;;;;;;;;;;;;6341481;28;20010;-82
2023/12/15 02:38:58;;;;;;;;;;;;;;;;;;6343582;28;20124;-83
2023/12/15 02:41:58;;;;;;;;;;;;;;;;;;6342220;28;20279;-83
2023/12/15 02:44:58;;;;;;;;;;;;;;;;;;6342864;28;19994;-83
2023/12/15 02:47:59;;;;;;;;;;;;;;;;;;6346937;28;19920;-82
2023/12/15 02:50:59;;;;;;;;;;;;;;;;;;6341180;28;20428;-84
2023/12/15 02:53:59;;;;;;;;;;;;;;;;;;6341345;28;19912;-82
2023/12/15 02:56:59;;;;;;;;;;;;;;;;;;6341022;28;19912;-82
2023/12/15 02:59:59;;;;;;;;;;;;;;;;;;6340905;28;19919;-82
2023/12/15 03:02:59;;;;;;;;;;;;;;;;;;6339363;28;20002;-82
2023/12/15 03:05:59;;;;;;;;;;;;;;;;;;6339983;28;19950;-82
2023/12/15 03:08:59;;;;;;;;;;;;;;;;;;6338694;28;20345;-88
2023/12/15 03:12:00;;;;;;;;;;;;;;;;;;6342579;28;19919;-84
2023/12/15 03:15:00;;;;;;;;;;;;;;;;;;6337208;28;19912;-82
2023/12/15 03:18:00;;;;;;;;;;;;;;;;;;6338893;28;19913;-82
2023/12/15 03:21:00;;;;;;;;;;;;;;;;;;6324433;28;19918;-83
2023/12/15 03:24:00;;;;;;;;;;;;;;;;;;6332923;28;19920;-82
2023/12/15 03:27:00;;;;;;;;;;;;;;;;;;6339880;28;19916;-82
2023/12/15 03:30:00;;;;;;;;;;;;;;;;;;6325162;28;20025;-82
2023/12/15 03:33:00;;;;;;;;;;;;;;;;;;6343185;28;19964;-82
2023/12/15 03:36:01;;;;;;;;;;;;;;;;;;6349884;28;19919;-84
2023/12/15 03:39:01;;;;;;;;;;;;;;;;;;6337509;28;19916;-82
2023/12/15 03:42:06;;;;;;;;;;;;;;;;;;6323853;28;19916;-82
2023/12/15 03:45:06;;;;;;;;;;;;;;;;;;6337257;28;19919;-82
2023/12/15 03:48:06;;;;;;;;;;;;;;;;;;6324329;28;19916;-82
2023/12/15 03:51:06;;;;;;;;;;;;;;;;;;6313740;28;20378;-82
2023/12/15 03:54:06;;;;;;;;;;;;;;;;;;6349014;28;19919;-84
2023/12/15 03:57:07;;;;;;;;;;;;;;;;;;6348599;27;19915;-83
2023/12/15 04:00:08;;;;;;;;;;;;;;;;;;6339828;28;19912;-83
2023/12/15 04:03:08;;;;;;;;;;;;;;;;;;6342596;28;19920;-83
2023/12/15 04:06:08;;;;;;;;;;;;;;;;;;6330686;28;19961;-83
2023/12/15 04:09:11;;;;;;;;;;;;;;;;;;6329646;28;19928;-83
2023/12/15 04:12:11;;;;;;;;;;;;;;;;;;6347870;28;19962;-83
2023/12/15 04:15:11;;;;;;;;;;;;;;;;;;6331034;28;20290;-83
2023/12/15 04:18:12;;;;;;;;;;;;;;;;;;6348646;28;20331;-83
2023/12/15 04:21:12;;;;;;;;;;;;;;;;;;6348486;28;20053;-83
2023/12/15 04:24:13;;;;;;;;;;;;;;;;;;6339137;28;19923;-84
2023/12/15 04:27:13;;;;;;;;;;;;;;;;;;6346928;28;19972;-83
2023/12/15 04:30:13;;;;;;;;;;;;;;;;;;6348797;28;19957;-83
2023/12/15 04:33:13;;;;;;;;;;;;;;;;;;6329203;28;20318;-83
2023/12/15 04:36:13;;;;;;;;;;;;;;;;;;6329341;28;20303;-83
2023/12/15 04:39:13;;;;;;;;;;;;;;;;;;6348007;28;19907;-83
2023/12/15 04:42:14;;;;;;;;;;;;;;;;;;6347841;28;19908;-83
2023/12/15 04:45:14;;;;;;;;;;;;;;;;;;6348495;28;19947;-83
2023/12/15 04:48:14;;;;;;;;;;;;;;;;;;6348199;28;20006;-82
2023/12/15 04:51:14;;;;;;;;;;;;;;;;;;6344491;28;19962;-84
2023/12/15 04:54:14;;;;;;;;;;;;;;;;;;6346893;28;20279;-82
2023/12/15 04:57:14;;;;;;;;;;;;;;;;;;6347690;28;19915;-83
2023/12/15 05:00:14;;;;;;;;;;;;;;;;;;6347544;28;19918;-82
2023/12/15 05:03:14;;;;;;;;;;;;;;;;;;6347714;28;20337;-82
2023/12/15 05:06:15;;;;;;;;;;;;;;;;;;6347800;28;19929;-82
2023/12/15 05:09:16;;;;;;;;;;;;;;;;;;6347053;28;19911;-82
2023/12/15 05:12:16;;;;;;;;;;;;;;;;;;6347124;28;19907;-83
2023/12/15 05:15:17;;;;;;;;;;;;;;;;;;6347603;28;19915;-83
2023/12/15 05:18:17;;;;;;;;;;;;;;;;;;6327864;28;19962;-83
2023/12/15 05:21:18;;;;;;;;;;;;;;;;;;6341335;28;19908;-82
2023/12/15 05:24:18;;;;;;;;;;;;;;;;;;6333564;28;19958;-82
2023/12/15 05:27:19;;;;;;;;;;;;;;;;;;6326132;28;19912;-82
2023/12/15 05:30:19;;;;;;;;;;;;;;;;;;6347836;28;19962;-82
2023/12/15 05:33:19;;;;;;;;;;;;;;;;;;6348005;28;19937;-81
2023/12/15 05:36:19;;;;;;;;;;;;;;;;;;6342150;28;19965;-82
2023/12/15 05:39:19;;;;;;;;;;;;;;;;;;6347293;28;19912;-82
2023/12/15 05:42:19;;;;;;;;;;;;;;;;;;6333778;28;19912;-82
2023/12/15 05:45:19;;;;;;;;;;;;;;;;;;6311084;28;19912;-82
2023/12/15 05:48:20;;;;;;;;;;;;;;;;;;6309148;28;19922;-82
2023/12/15 05:51:20;;;;;;;;;;;;;;;;;;6328630;28;19923;-82
2023/12/15 05:54:20;;;;;;;;;;;;;;;;;;6333152;28;19919;-82
2023/12/15 05:57:20;;;;;;;;;;;;;;;;;;6351212;27;19912;-82
2023/12/15 06:00:20;;;;;;;;;;;;;;;;;;6330430;28;19935;-82
2023/12/15 06:03:20;;;;;;;;;;;;;;;;;;6346848;28;19919;-82
2023/12/15 06:06:20;;;;;;;;;;;;;;;;;;6352242;28;20015;-82
2023/12/15 06:09:21;;;;;;;;;;;;;;;;;;6351127;28;19998;-83
2023/12/15 06:12:21;;;;;;;;;;;;;;;;;;6329300;28;20058;-83
2023/12/15 06:15:21;;;;;;;;;;;;;;;;;;6325465;28;19908;-85
2023/12/15 06:18:21;;;;;;;;;;;;;;;;;;6327353;28;20391;-83
2023/12/15 06:21:21;;;;;;;;;;;;;;;;;;6308443;28;19912;-83
2023/12/15 06:24:21;;;;;;;;;;;;;;;;;;6325401;28;19927;-83
2023/12/15 06:27:21;;;;;;;;;;;;;;;;;;6330100;28;19998;-83
2023/12/15 06:30:21;;;;;;;;;;;;;;;;;;6351555;28;19938;-83
2023/12/15 06:33:22;;;;;;;;;;;;;;;;;;6337929;28;19923;-83
2023/12/15 06:36:22;;;;;;;;;;;;;;;;;;6326235;28;19916;-83
2023/12/15 06:39:22;;;;;;;;;;;;;;;;;;6321725;28;20003;-83
2023/12/15 06:42:22;;;;;;;;;;;;;;;;;;6344378;28;19943;-83
2023/12/15 06:45:22;;;;;;;;;;;;;;;;;;6336662;28;20388;-83
2023/12/15 06:48:22;;;;;;;;;;;;;;;;;;6325768;28;19916;-83
2023/12/15 06:51:22;;;;;;;;;;;;;;;;;;6324486;28;20493;-86
2023/12/15 06:54:23;;;;;;;;;;;;;;;;;;6328398;28;19908;-83
2023/12/15 06:57:23;;;;;;;;;;;;;;;;;;6348100;28;19916;-84
2023/12/15 07:00:23;;;;;;;;;;;;;;;;;;6350780;28;19920;-84
2023/12/15 07:03:23;;;;;;;;;;;;;;;;;;6333911;28;19953;-84
2023/12/15 07:06:23;;;;;;;;;;;;;;;;;;6344316;28;19919;-83
2023/12/15 07:09:23;;;;;;;;;;;;;;;;;;6340512;28;19931;-83
2023/12/15 07:12:23;;;;;;;;;;;;;;;;;;6324582;28;20356;-83
2023/12/15 07:15:27;;;;;;;;;;;;;;;;;;6325613;28;19918;-83
2023/12/15 07:18:27;;;;;;;;;;;;;;;;;;6328566;28;19912;-83
2023/12/15 07:21:27;;;;;;;;;;;;;;;;;;6350641;28;19907;-83
2023/12/15 07:24:29;;;;;;;;;;;;;;;;;;6349537;28;19912;-83
2023/12/15 07:27:29;;;;;;;;;;;;;;;;;;6348229;28;20017;-83
2023/12/15 07:30:29;;;;;;;;;;;;;;;;;;6350112;28;19912;-83
2023/12/15 07:33:29;;;;;;;;;;;;;;;;;;6347572;28;19912;-84
2023/12/15 07:36:29;;;;;;;;;;;;;;;;;;6347964;28;19973;-84
2023/12/15 07:39:29;;;;;;;;;;;;;;;;;;6342341;28;19914;-83
2023/12/15 07:42:29;;;;;;;;;;;;;;;;;;6348942;28;19959;-83
2023/12/15 07:45:29;;;;;;;;;;;;;;;;;;6331473;28;20060;-83
2023/12/15 07:48:30;;;;;;;;;;;;;;;;;;6331528;28;19916;-83
2023/12/15 07:51:30;;;;;;;;;;;;;;;;;;6341236;28;19955;-83
2023/12/15 07:54:30;;;;;;;;;;;;;;;;;;6348314;28;20002;-82
2023/12/15 07:57:30;;;;;;;;;;;;;;;;;;6340463;28;19912;-83
2023/12/15 08:00:30;;;;;;;;;;;;;;;;;;6349662;28;19933;-83
2023/12/15 08:03:30;;;;;;;;;;;;;;;;;;6327971;28;20276;-83
2023/12/15 08:06:30;;;;;;;;;;;;;;;;;;6325310;28;19920;-83
2023/12/15 08:09:30;;;;;;;;;;;;;;;;;;6310739;28;20036;-83
2023/12/15 08:12:30;;;;;;;;;;;;;;;;;;6323742;28;19908;-83
2023/12/15 08:15:31;;;;;;;;;;;;;;;;;;6344284;28;20398;-82
2023/12/15 08:18:31;;;;;;;;;;;;;;;;;;6335210;28;19912;-83
2023/12/15 08:21:31;;;;;;;;;;;;;;;;;;6323721;28;19915;-83
2023/12/15 08:24:31;;;;;;;;;;;;;;;;;;6326641;28;19943;-84
2023/12/15 08:27:31;;;;;;;;;;;;;;;;;;6327916;28;20016;-83
2023/12/15 08:30:31;;;;;;;;;;;;;;;;;;6329565;28;19916;-83
2023/12/15 08:33:31;;;;;;;;;;;;;;;;;;6340791;28;20391;-84
2023/12/15 08:36:32;;;;;;;;;;;;;;;;;;6323454;28;20020;-82
2023/12/15 08:39:32;;;;;;;;;;;;;;;;;;6338566;28;19915;-84
2023/12/15 08:42:32;;;;;;;;;;;;;;;;;;6347876;28;19911;-87
2023/12/15 08:45:32;;;;;;;;;;;;;;;;;;6343333;28;19964;-84
2023/12/15 08:48:32;;;;;;;;;;;;;;;;;;6328480;28;19964;-84
2023/12/15 08:51:32;;;;;;;;;;;;;;;;;;6335506;28;19919;-84
2023/12/15 08:54:32;;;;;;;;;;;;;;;;;;6330831;28;20361;-84
2023/12/15 08:57:32;;;;;;;;;;;;;;;;;;6322319;28;19916;-84
2023/12/15 09:00:33;;;;;;;;;;;;;;;;;;6348367;28;19938;-84
2023/12/15 09:03:34;;;;;;;;;;;;;;;;;;6330167;28;19924;-84
2023/12/15 09:06:34;;;;;;;;;;;;;;;;;;6316964;28;20306;-83
2023/12/15 09:09:34;;;;;;;;;;;;;;;;;;6324431;28;19916;-84
2023/12/15 09:12:34;;;;;;;;;;;;;;;;;;6329100;28;19908;-84
2023/12/15 09:15:34;;;;;;;;;;;;;;;;;;6347451;28;20089;-84
2023/12/15 09:18:34;;;;;;;;;;;;;;;;;;6329900;28;19950;-84
2023/12/15 09:21:35;;;;;;;;;;;;;;;;;;6347595;28;20328;-84
2023/12/15 09:24:35;;;;;;;;;;;;;;;;;;6338829;28;19918;-84
2023/12/15 09:27:35;;;;;;;;;;;;;;;;;;6315869;28;19916;-84
2023/12/15 09:30:35;;;;;;;;;;;;;;;;;;6345033;28;19911;-83
2023/12/15 09:33:35;;;;;;;;;;;;;;;;;;6347665;28;19911;-84
2023/12/15 09:36:35;;;;;;;;;;;;;;;;;;6329381;28;20382;-84
2023/12/15 09:39:35;;;;;;;;;;;;;;;;;;6328895;28;20412;-84
2023/12/15 09:42:35;;;;;;;;;;;;;;;;;;6328676;28;19908;-84
2023/12/15 09:45:35;;;;;;;;;;;;;;;;;;6336019;28;19912;-85
2023/12/15 09:48:36;;;;;;;;;;;;;;;;;;6324976;28;19920;-85
2023/12/15 09:51:36;;;;;;;;;;;;;;;;;;6325942;28;19927;-84
2023/12/15 09:54:36;;;;;;;;;;;;;;;;;;6343554;28;19968;-84
2023/12/15 09:57:36;;;;;;;;;;;;;;;;;;6342263;28;19919;-85
2023/12/15 10:00:36;;;;;;;;;;;;;;;;;;6334711;28;19941;-86
2023/12/15 10:03:36;;;;;;;;;;;;;;;;;;6318322;28;20330;-85
2023/12/15 10:06:37;;;;;;;;;;;;;;;;;;6340315;28;20325;-85
2023/12/15 10:09:37;;;;;;;;;;;;;;;;;;6334275;28;20031;-85
2023/12/15 10:12:37;;;;;;;;;;;;;;;;;;6300555;28;19916;-85
2023/12/15 10:15:37;;;;;;;;;;;;;;;;;;6320440;28;19916;-86
2023/12/15 10:18:37;;;;;;;;;;;;;;;;;;6344833;28;19916;-86
2023/12/15 10:21:37;;;;;;;;;;;;;;;;;;6344318;28;19915;-85
2023/12/15 10:24:37;;;;;;;;;;;;;;;;;;6325232;28;20306;-85
2023/12/15 10:27:37;;;;;;;;;;;;;;;;;;6328672;28;20287;-86
2023/12/15 10:30:37;;;;;;;;;;;;;;;;;;6348586;28;20010;-85
2023/12/15 10:33:38;;;;;;;;;;;;;;;;;;6348351;28;19936;-85
2023/12/15 10:36:46;;;;;;;;;;;;;;;;;;6349172;28;19911;-85
2023/12/15 10:39:46;;;;;;;;;;;;;;;;;;6341883;28;19908;-86
2023/12/15 10:42:46;;;;;;;;;;;;;;;;;;6347485;28;20283;-85
2023/12/15 10:45:46;;;;;;;;;;;;;;;;;;6349085;28;19918;-86
2023/12/15 10:48:46;;;;;;;;;;;;;;;;;;6348895;28;19916;-86
2023/12/15 10:51:47;;;;;;;;;;;;;;;;;;6348583;28;19919;-86
2023/12/15 10:54:47;;;;;;;;;;;;;;;;;;6348694;28;20004;-86
2023/12/15 10:57:47;;;;;;;;;;;;;;;;;;6347502;28;19912;-86
2023/12/15 11:00:47;;;;;;;;;;;;;;;;;;6348763;28;20387;-86
2023/12/15 11:03:47;;;;;;;;;;;;;;;;;;6348714;28;19998;-86
2023/12/15 11:06:48;;;;;;;;;;;;;;;;;;6343413;28;19926;-85
2023/12/15 11:09:48;;;;;;;;;;;;;;;;;;6324363;28;19920;-86
2023/12/15 11:12:48;;;;;;;;;;;;;;;;;;6346740;28;20279;-87
2023/12/15 11:15:49;;;;;;;;;;;;;;;;;;6346162;28;20304;-86
2023/12/15 11:18:49;;;;;;;;;;;;;;;;;;6327093;28;20322;-85
2023/12/15 11:21:49;;;;;;;;;;;;;;;;;;6329743;28;19915;-88
2023/12/15 11:24:50;;;;;;;;;;;;;;;;;;6330225;28;19922;-87
2023/12/15 11:27:50;;;;;;;;;;;;;;;;;;6329319;28;20272;-86
2023/12/15 11:30:52;;;;;;;;;;;;;;;;;;6336819;28;20322;-86
2023/12/15 11:33:52;;;;;;;;;;;;;;;;;;6347259;28;19916;-86
2023/12/15 11:36:52;;;;;;;;;;;;;;;;;;6328828;28;20431;-87
2023/12/15 11:39:53;;;;;;;;;;;;;;;;;;6329668;28;20321;-86
2023/12/15 11:42:53;;;;;;;;;;;;;;;;;;6348115;27;19915;-86
2023/12/15 11:45:54;;;;;;;;;;;;;;;;;;6348892;28;19959;-86
2023/12/15 11:48:54;;;;;;;;;;;;;;;;;;6345985;28;19919;-89
2023/12/15 11:51:54;;;;;;;;;;;;;;;;;;6341702;28;19924;-88
2023/12/15 11:54:54;;;;;;;;;;;;;;;;;;5982730;28;10000154;-87
2023/12/15 11:57:54;;;;;;;;;;;;;;;;;;6327272;28;20045;-89
2023/12/15 12:00:54;;;;;;;;;;;;;;;;;;6305914;28;19912;-89
2023/12/15 12:03:54;;;;;;;;;;;;;;;;;;6349709;28;19976;-87
2023/12/15 12:06:55;;;;;;;;;;;;;;;;;;6349586;28;19911;-86
2023/12/15 12:09:55;;;;;;;;;;;;;;;;;;6330768;28;20366;-84
2023/12/15 12:12:55;;;;;;;;;;;;;;;;;;6343597;28;19909;-85
2023/12/15 12:15:55;;;;;;;;;;;;;;;;;;6319611;28;19912;-88
2023/12/15 12:18:55;;;;;;;;;;;;;;;;;;6349658;28;20359;-88
2023/12/15 12:21:56;;;;;;;;;;;;;;;;;;6349115;28;20343;-85
2023/12/15 12:24:56;;;;;;;;;;;;;;;;;;6328912;28;19952;-84
2023/12/15 12:27:56;;;;;;;;;;;;;;;;;;6348224;28;19912;-85
2023/12/15 12:30:56;;;;;;;;;;;;;;;;;;6330145;28;20040;-86
2023/12/15 12:33:56;;;;;;;;;;;;;;;;;;6349411;28;19933;-87
2023/12/15 12:36:57;;;;;;;;;;;;;;;;;;6337957;28;19915;-87
2023/12/15 12:39:57;;;;;;;;;;;;;;;;;;6325076;28;19912;-87
2023/12/15 12:42:58;;;;;;;;;;;;;;;;;;6341835;28;19914;-87
2023/12/15 12:45:58;;;;;;;;;;;;;;;;;;6348537;28;20313;-88
2023/12/15 12:48:58;;;;;;;;;;;;;;;;;;6348786;28;19919;-87
2023/12/15 12:51:58;;;;;;;;;;;;;;;;;;6328407;28;19912;-88
2023/12/15 12:54:58;;;;;;;;;;;;;;;;;;6336568;28;19964;-88
2023/12/15 12:58:00;;;;;;;;;;;;;;;;;;6330358;28;19907;-88
2023/12/15 13:01:00;;;;;;;;;;;;;;;;;;6348872;28;19912;-89
2023/12/15 13:04:00;;;;;;;;;;;;;;;;;;6347237;28;20295;-89
2023/12/15 13:07:00;;;;;;;;;;;;;;;;;;6349465;28;19964;-89
2023/12/15 13:10:00;;;;;;;;;;;;;;;;;;6330211;28;20261;-89
2023/12/15 13:13:02;;;;;;;;;;;;;;;;;;6343931;28;19958;-87
2023/12/15 13:16:02;;;;;;;;;;;;;;;;;;6343997;28;19916;-87
2023/12/15 13:19:03;;;;;;;;;;;;;;;;;;6339777;28;19924;-87
2023/12/15 13:22:03;;;;;;;;;;;;;;;;;;6347829;28;19920;-88
2023/12/15 13:25:05;;;;;;;;;;;;;;;;;;6342726;28;19915;-89
2023/12/15 13:28:06;;;;;;;;;;;;;;;;;;6349952;28;19911;-86
2023/12/15 13:31:06;;;;;;;;;;;;;;;;;;6330328;28;19912;-86
2023/12/15 13:34:06;;;;;;;;;;;;;;;;;;6348139;28;19969;-86
2023/12/15 13:37:06;;;;;;;;;;;;;;;;;;6348587;28;20302;-86
2023/12/15 13:40:06;;;;;;;;;;;;;;;;;;6347148;27;20398;-86
2023/12/15 13:43:06;;;;;;;;;;;;;;;;;;6329459;28;19912;-86
2023/12/15 13:46:07;;;;;;;;;;;;;;;;;;6346754;28;19912;-85
2023/12/15 13:49:07;;;;;;;;;;;;;;;;;;6339955;28;19961;-89
2023/12/15 13:52:07;;;;;;;;;;;;;;;;;;6346941;28;19912;-86
2023/12/15 13:55:07;;;;;;;;;;;;;;;;;;6341270;28;20027;-86
2023/12/15 13:58:07;;;;;;;;;;;;;;;;;;6326908;28;19919;-86
2023/12/15 14:01:07;;;;;;;;;;;;;;;;;;6345491;28;22811;-86
2023/12/15 14:04:08;;;;;;;;;;;;;;;;;;6342243;28;19912;-86
2023/12/15 14:07:08;;;;;;;;;;;;;;;;;;6328636;28;19958;-88
2023/12/15 14:10:08;;;;;;;;;;;;;;;;;;6328341;28;20385;-88
2023/12/15 14:13:08;;;;;;;;;;;;;;;;;;6310234;28;20383;-88
2023/12/15 14:16:09;;;;;;;;;;;;;;;;;;6328667;28;19955;-88
2023/12/15 14:19:09;;;;;;;;;;;;;;;;;;6328116;28;19973;-88
2023/12/15 14:22:12;;;;;;;;;;;;;;;;;;6328364;28;19908;-88
2023/12/15 14:25:12;;;;;;;;;;;;;;;;;;6327287;28;19946;-91
2023/12/15 14:28:12;;;;;;;;;;;;;;;;;;6311460;28;19933;-91
2023/12/15 14:31:12;;;;;;;;;;;;;;;;;;6311675;28;19923;-91
2023/12/15 14:34:12;;;;;;;;;;;;;;;;;;6311368;28;20280;-91
2023/12/15 14:37:12;;;;;;;;;;;;;;;;;;6311229;28;19999;-91
2023/12/15 14:40:13;;;;;;;;;;;;;;;;;;6329366;28;19947;-91
2023/12/15 14:43:13;;;;;;;;;;;;;;;;;;6311215;28;19912;-91
2023/12/15 14:46:14;;;;;;;;;;;;;;;;;;6329244;28;19945;-91
2023/12/15 14:49:14;;;;;;;;;;;;;;;;;;6311336;28;19913;-91
2023/12/15 14:52:15;;;;;;;;;;;;;;;;;;6316215;28;19915;-93
2023/12/15 14:55:15;;;;;;;;;;;;;;;;;;6325232;28;19919;-92
2023/12/15 14:58:17;;;;;;;;;;;;;;;;;;6350895;28;19912;-92
2023/12/15 15:01:18;;;;;;;;;;;;;;;;;;6341182;28;19912;-93
2023/12/15 15:04:23;;;;;;;;;;;;;;;;;;6311451;28;19943;-92
2023/12/15 15:07:29;;;;;;;;;;;;;;;;;;6324734;28;19923;-93
2023/12/15 15:10:29;;;;;;;;;;;;;;;;;;6334114;28;19920;-94
2023/12/15 15:13:30;;;;;;;;;;;;;;;;;;6330531;28;19924;-94
2023/12/15 15:16:30;;;;;;;;;;;;;;;;;;6333641;28;20006;-94
2023/12/15 15:19:30;;;;;;;;;;;;;;;;;;6336179;28;19908;-94
2023/12/15 15:22:30;;;;;;;;;;;;;;;;;;6345552;28;19918;-95
2023/12/15 15:25:30;;;;;;;;;;;;;;;;;;6311075;28;20391;-95
2023/12/15 15:28:30;;;;;;;;;;;;;;;;;;6324787;28;20283;-94
2023/12/15 15:31:30;;;;;;;;;;;;;;;;;;6351324;28;19939;-93
2023/12/15 15:34:31;;;;;;;;;;;;;;;;;;6321615;28;19916;-87
2023/12/15 15:37:31;;;;;;;;;;;;;;;;;;6331463;28;19943;-87
2023/12/15 15:40:31;;;;;;;;;;;;;;;;;;6350011;28;19912;-88
2023/12/15 15:43:32;;;;;;;;;;;;;;;;;;6343778;28;19915;-88
2023/12/15 15:46:32;;;;;;;;;;;;;;;;;;6337374;28;20392;-87
2023/12/15 15:49:32;;;;;;;;;;;;;;;;;;6323791;28;20383;-85
2023/12/15 15:52:33;;;;;;;;;;;;;;;;;;6331356;28;19976;-87
2023/12/15 15:55:33;;;;;;;;;;;;;;;;;;6342376;28;19912;-86
2023/12/15 15:58:33;;;;;;;;;;;;;;;;;;6322482;28;19923;-86
2023/12/15 16:01:33;;;;;;;;;;;;;;;;;;6332503;28;19920;-86
2023/12/15 16:04:33;;;;;;;;;;;;;;;;;;6335308;28;19916;-85
2023/12/15 16:07:33;;;;;;;;;;;;;;;;;;6349034;28;19960;-86
2023/12/15 16:10:34;;;;;;;;;;;;;;;;;;6335794;28;20375;-86
2023/12/15 16:13:34;;;;;;;;;;;;;;;;;;6323271;28;19958;-87
2023/12/15 16:16:34;;;;;;;;;;;;;;;;;;6320982;28;19947;-87
2023/12/15 16:19:34;;;;;;;;;;;;;;;;;;6348199;28;19955;-86
2023/12/15 16:22:35;;;;;;;;;;;;;;;;;;6330623;28;19908;-85
2023/12/15 16:25:35;;;;;;;;;;;;;;;;;;6328937;28;19912;-85
2023/12/15 16:28:35;;;;;;;;;;;;;;;;;;6330550;28;20379;-84
2023/12/15 16:31:36;;;;;;;;;;;;;;;;;;6329820;28;19912;-85
2023/12/15 16:34:36;;;;;;;;;;;;;;;;;;6332257;28;20439;-83
2023/12/15 16:37:36;;;;;;;;;;;;;;;;;;6330130;28;20045;-83
2023/12/15 16:40:36;;;;;;;;;;;;;;;;;;6328051;28;19919;-82
2023/12/15 16:43:37;;;;;;;;;;;;;;;;;;6347330;28;20397;-82
2023/12/15 16:46:37;;;;;;;;;;;;;;;;;;6346207;28;19911;-87
2023/12/15 16:49:37;;;;;;;;;;;;;;;;;;6348424;28;20330;-82
2023/12/15 16:52:38;;;;;;;;;;;;;;;;;;6348402;28;19919;-88
2023/12/15 16:55:38;;;;;;;;;;;;;;;;;;6319850;28;19912;-86
2023/12/15 16:58:38;;;;;;;;;;;;;;;;;;6341952;28;19912;-86
2023/12/15 17:01:38;;;;;;;;;;;;;;;;;;6305535;28;19920;-86
2023/12/15 17:04:38;;;;;;;;;;;;;;;;;;6328215;28;19912;-86
2023/12/15 17:07:38;;;;;;;;;;;;;;;;;;6317950;28;19916;-86
2023/12/15 17:10:38;;;;;;;;;;;;;;;;;;6328102;28;19915;-87
2023/12/15 17:13:39;;;;;;;;;;;;;;;;;;6333726;28;19923;-89
2023/12/15 17:16:39;;;;;;;;;;;;;;;;;;6338887;28;20383;-88
2023/12/15 17:19:39;;;;;;;;;;;;;;;;;;6325324;28;20363;-88
2023/12/15 17:22:39;;;;;;;;;;;;;;;;;;6345712;28;20333;-90
2023/12/15 17:25:39;;;;;;;;;;;;;;;;;;6334271;28;19922;-88
2023/12/15 17:28:39;;;;;;;;;;;;;;;;;;6338502;28;20008;-88
2023/12/15 17:31:39;;;;;;;;;;;;;;;;;;6326581;28;19969;-88
2023/12/15 17:34:40;;;;;;;;;;;;;;;;;;6345810;28;19981;-87
2023/12/15 17:37:40;;;;;;;;;;;;;;;;;;6350176;28;19923;-88
2023/12/15 17:40:40;;;;;;;;;;;;;;;;;;6331183;28;19965;-88
2023/12/15 17:43:40;;;;;;;;;;;;;;;;;;6331334;28;20402;-88
2023/12/15 17:46:40;;;;;;;;;;;;;;;;;;6348081;28;20387;-88
2023/12/15 17:49:41;;;;;;;;;;;;;;;;;;6346530;28;19920;-88
2023/12/15 17:52:46;;;;;;;;;;;;;;;;;;6319771;28;20378;-87
2023/12/15 17:55:46;;;;;;;;;;;;;;;;;;6324279;28;19912;-87
2023/12/15 17:58:46;;;;;;;;;;;;;;;;;;6343212;28;20332;-87
2023/12/15 18:01:46;;;;;;;;;;;;;;;;;;6345749;28;19919;-86
2023/12/15 18:04:47;;;;;;;;;;;;;;;;;;6349424;28;19916;-86
2023/12/15 18:07:47;;;;;;;;;;;;;;;;;;6349784;28;19915;-87
2023/12/15 18:10:48;;;;;;;;;;;;;;;;;;6323858;28;19916;-85
2023/12/15 18:13:48;;;;;;;;;;;;;;;;;;6350185;28;19908;-87
2023/12/15 18:16:48;;;;;;;;;;;;;;;;;;6350243;28;19907;-87
2023/12/15 18:19:48;;;;;;;;;;;;;;;;;;6347940;28;19918;-86
2023/12/15 18:22:49;;;;;;;;;;;;;;;;;;6317990;28;20287;-87
2023/12/15 18:25:49;;;;;;;;;;;;;;;;;;6333082;28;20303;-87
2023/12/15 18:28:49;;;;;;;;;;;;;;;;;;6325091;28;20116;-87
2023/12/15 18:31:49;;;;;;;;;;;;;;;;;;6330426;28;19919;-87
2023/12/15 18:34:49;;;;;;;;;;;;;;;;;;6331652;28;20303;-86
2023/12/15 18:37:49;;;;;;;;;;;;;;;;;;6331307;28;19911;-86
2023/12/15 18:40:50;;;;;;;;;;;;;;;;;;6313134;28;19973;-87
2023/12/15 18:43:50;;;;;;;;;;;;;;;;;;6323919;28;20348;-86
2023/12/15 18:46:51;;;;;;;;;;;;;;;;;;6320731;28;19916;-87
2023/12/15 18:49:51;;;;;;;;;;;;;;;;;;6330194;28;20395;-86
2023/12/15 18:52:51;;;;;;;;;;;;;;;;;;6318753;28;19923;-86
2023/12/15 18:55:51;;;;;;;;;;;;;;;;;;6345941;28;19931;-86
2023/12/15 18:58:51;;;;;;;;;;;;;;;;;;6348512;28;20298;-87
2023/12/15 19:01:51;;;;;;;;;;;;;;;;;;6322275;28;19971;-87
2023/12/15 19:04:52;;;;;;;;;;;;;;;;;;6308564;28;19923;-87
2023/12/15 19:07:52;;;;;;;;;;;;;;;;;;6339771;28;19926;-85
2023/12/15 19:10:52;;;;;;;;;;;;;;;;;;6338041;28;19965;-87
2023/12/15 19:13:52;;;;;;;;;;;;;;;;;;6337542;28;19934;-87
2023/12/15 19:16:56;;;;;;;;;;;;;;;;;;6322111;28;20010;-86
2023/12/15 19:19:56;;;;;;;;;;;;;;;;;;6338925;28;20291;-86
2023/12/15 19:22:56;;;;;;;;;;;;;;;;;;6322993;28;19912;-86
2023/12/15 19:25:57;;;;;;;;;;;;;;;;;;6319019;28;19959;-86
2023/12/15 19:28:57;;;;;;;;;;;;;;;;;;6321038;28;19962;-86
2023/12/15 19:31:57;;;;;;;;;;;;;;;;;;6320876;28;19920;-87
2023/12/15 19:34:58;;;;;;;;;;;;;;;;;;6307091;28;19982;-86
2023/12/15 19:37:58;;;;;;;;;;;;;;;;;;6313652;28;19916;-86
2023/12/15 19:40:58;;;;;;;;;;;;;;;;;;6321822;28;19912;-87
2023/12/15 19:43:58;;;;;;;;;;;;;;;;;;6322790;28;20034;-87
2023/12/15 19:46:59;;;;;;;;;;;;;;;;;;6312395;28;19916;-87
2023/12/15 19:49:59;;;;;;;;;;;;;;;;;;6321201;28;19916;-86
2023/12/15 19:52:59;;;;;;;;;;;;;;;;;;6311109;28;20342;-88
2023/12/15 19:55:59;;;;;;;;;;;;;;;;;;6295678;28;20275;-87
2023/12/15 19:58:59;;;;;;;;;;;;;;;;;;6316866;28;19916;-87
2023/12/15 20:02:02;;;;;;;;;;;;;;;;;;6318101;28;20308;-86
2023/12/15 20:05:05;;;;;;;;;;;;;;;;;;6334339;28;19971;-86
2023/12/15 20:08:05;;;;;;;;;;;;;;;;;;6299005;28;19924;-86
2023/12/15 20:11:05;;;;;;;;;;;;;;;;;;6299336;28;19928;-87
2023/12/15 20:14:06;;;;;;;;;;;;;;;;;;6315616;28;19912;-90
2023/12/15 20:17:06;;;;;;;;;;;;;;;;;;6321172;28;19922;-90
2023/12/15 20:20:07;;;;;;;;;;;;;;;;;;6316400;28;20010;-90
2023/12/15 20:23:07;;;;;;;;;;;;;;;;;;6301673;28;19919;-90
2023/12/15 20:26:08;;;;;;;;;;;;;;;;;;6299501;28;20058;-90
2023/12/15 20:29:08;;;;;;;;;;;;;;;;;;6318921;28;20010;-90
2023/12/15 20:32:08;;;;;;;;;;;;;;;;;;6321581;28;19923;-90